createdAt,value
2022-11-05T00:00:08.985Z,975.39
2022-11-05T00:01:08.942Z,975.40
2022-11-05T00:02:08.933Z,975.46
2022-11-05T00:03:09.223Z,975.42
2022-11-05T00:04:08.952Z,975.40
2022-11-05T00:05:08.885Z,975.44
2022-11-05T00:06:08.949Z,975.43
2022-11-05T00:07:09.883Z,975.42
2022-11-05T00:08:08.964Z,975.46
2022-11-05T00:09:08.847Z,975.53
2022-11-05T00:10:08.983Z,975.42
2022-11-05T00:11:15.168Z,975.45
2022-11-05T00:12:09.924Z,975.56
2022-11-05T00:13:09.232Z,975.51
2022-11-05T00:14:08.930Z,975.56
2022-11-05T00:15:08.775Z,975.52
2022-11-05T00:16:08.852Z,975.60
2022-11-05T00:17:09.820Z,975.55
2022-11-05T00:18:08.828Z,975.53
2022-11-05T00:19:08.800Z,975.56
2022-11-05T00:20:08.686Z,975.56
2022-11-05T00:21:08.748Z,975.58
2022-11-05T00:22:08.722Z,975.63
2022-11-05T00:23:09.059Z,975.63
2022-11-05T00:24:08.655Z,975.64
2022-11-05T00:25:08.643Z,975.67
2022-11-05T00:26:08.686Z,975.61
2022-11-05T00:27:08.622Z,975.63
2022-11-05T00:28:08.595Z,975.62
2022-11-05T00:29:09.615Z,975.57
2022-11-05T00:30:08.574Z,975.67
2022-11-05T00:31:08.609Z,975.67
2022-11-05T00:32:08.552Z,975.63
2022-11-05T00:33:08.838Z,975.66
2022-11-05T00:34:08.497Z,975.67
2022-11-05T00:35:08.517Z,975.69
2022-11-05T00:36:08.499Z,975.66
2022-11-05T00:37:09.460Z,975.64
2022-11-05T00:38:08.457Z,975.65
2022-11-05T00:39:08.447Z,975.69
2022-11-05T00:40:08.438Z,975.69
2022-11-05T00:41:08.418Z,975.74
2022-11-05T00:42:09.407Z,975.71
2022-11-05T00:43:08.631Z,975.72
2022-11-05T00:44:09.416Z,975.76
2022-11-05T00:45:08.365Z,975.79
2022-11-05T00:46:13.273Z,975.83
2022-11-05T00:48:43.320Z,975.81
2022-11-05T00:49:22.913Z,975.80
2022-11-05T00:50:26.340Z,975.81
2022-11-05T00:51:22.309Z,975.85
2022-11-05T00:52:26.955Z,975.84
2022-11-05T00:54:35.244Z,975.88
2022-11-05T00:56:45.728Z,975.90
2022-11-05T00:58:09.654Z,975.87
2022-11-05T00:58:43.303Z,975.92
2022-11-05T00:59:44.785Z,975.90
2022-11-05T01:01:10.276Z,975.95
2022-11-05T01:01:41.719Z,975.95
2022-11-05T01:02:43.318Z,975.90
2022-11-05T01:03:43.342Z,975.99
2022-11-05T01:04:48.478Z,975.90
2022-11-05T01:05:43.386Z,975.90
2022-11-05T01:07:02.255Z,975.87
2022-11-05T01:07:44.902Z,975.94
2022-11-05T01:08:49.738Z,975.89
2022-11-05T01:09:42.559Z,975.91
2022-11-05T01:10:54.570Z,975.92
2022-11-05T01:11:42.527Z,975.94
2022-11-05T01:12:48.407Z,975.94
2022-11-05T01:13:54.193Z,975.98
2022-11-05T01:15:59.971Z,976.01
2022-11-05T01:16:57.554Z,976.05
2022-11-05T01:17:50.485Z,976.07
2022-11-05T01:18:58.752Z,976.10
2022-11-05T01:19:52.912Z,976.08
2022-11-05T01:20:53.710Z,976.12
2022-11-05T01:21:50.167Z,976.08
2022-11-05T01:22:50.138Z,976.11
2022-11-05T01:23:50.139Z,976.09
2022-11-05T01:24:50.107Z,976.08
2022-11-05T01:25:50.110Z,976.11
2022-11-05T01:26:50.107Z,976.15
2022-11-05T01:27:50.088Z,976.13
2022-11-05T01:28:50.111Z,976.16
2022-11-05T01:29:50.047Z,976.16
2022-11-05T01:30:50.038Z,976.24
2022-11-05T01:31:50.022Z,976.23
2022-11-05T01:32:50.029Z,976.27
2022-11-05T01:33:50.004Z,976.25
2022-11-05T01:34:49.989Z,976.26
2022-11-05T01:35:49.973Z,976.23
2022-11-05T01:36:49.960Z,976.25
2022-11-05T01:37:49.972Z,976.22
2022-11-05T01:38:49.944Z,976.29
2022-11-05T01:39:49.908Z,976.29
2022-11-05T01:40:49.905Z,976.30
2022-11-05T01:41:49.902Z,976.30
2022-11-05T01:42:49.962Z,976.26
2022-11-05T01:43:49.878Z,976.28
2022-11-05T01:44:49.843Z,976.28
2022-11-05T01:45:49.860Z,976.27
2022-11-05T01:46:49.809Z,976.28
2022-11-05T01:47:49.819Z,976.28
2022-11-05T01:48:49.818Z,976.29
2022-11-05T01:49:49.795Z,976.29
2022-11-05T01:50:49.777Z,976.28
2022-11-05T01:51:49.784Z,976.32
2022-11-05T01:52:49.771Z,976.31
2022-11-05T01:53:49.753Z,976.36
2022-11-05T01:54:49.743Z,976.34
2022-11-05T01:55:49.735Z,976.41
2022-11-05T01:56:49.712Z,976.34
2022-11-05T01:57:49.701Z,976.38
2022-11-05T01:58:49.678Z,976.39
2022-11-05T01:59:49.668Z,976.47
2022-11-05T02:00:49.652Z,976.39
2022-11-05T02:01:49.752Z,976.41
2022-11-05T02:02:49.804Z,976.47
2022-11-05T02:03:49.604Z,976.42
2022-11-05T02:04:49.583Z,976.46
2022-11-05T02:05:49.588Z,976.42
2022-11-05T02:06:49.553Z,976.41
2022-11-05T02:07:49.534Z,976.44
2022-11-05T02:08:49.535Z,976.39
2022-11-05T02:09:49.534Z,976.44
2022-11-05T02:10:49.503Z,976.45
2022-11-05T02:11:49.516Z,976.52
2022-11-05T02:12:49.483Z,976.51
2022-11-05T02:13:49.476Z,976.52
2022-11-05T02:14:49.453Z,976.57
2022-11-05T02:15:49.434Z,976.55
2022-11-05T02:16:49.437Z,976.52
2022-11-05T02:17:49.434Z,976.57
2022-11-05T02:18:49.416Z,976.57
2022-11-05T02:19:49.394Z,976.53
2022-11-05T02:20:52.137Z,976.59
2022-11-05T02:21:49.378Z,976.56
2022-11-05T02:22:49.364Z,976.51
2022-11-05T02:23:49.392Z,976.55
2022-11-05T02:24:49.338Z,976.56
2022-11-05T02:25:49.333Z,976.54
2022-11-05T02:26:49.316Z,976.57
2022-11-05T02:27:49.305Z,976.56
2022-11-05T02:28:49.304Z,976.63
2022-11-05T02:29:49.276Z,976.67
2022-11-05T02:30:49.286Z,976.63
2022-11-05T02:31:49.248Z,976.63
2022-11-05T02:32:49.236Z,976.58
2022-11-05T02:33:49.251Z,976.61
2022-11-05T02:34:49.216Z,976.63
2022-11-05T02:35:49.214Z,976.60
2022-11-05T02:36:49.186Z,976.63
2022-11-05T02:37:49.168Z,976.61
2022-11-05T02:38:49.187Z,976.63
2022-11-05T02:39:49.156Z,976.65
2022-11-05T02:40:49.138Z,976.62
2022-11-05T02:41:49.128Z,976.67
2022-11-05T02:42:49.121Z,976.71
2022-11-05T02:43:49.097Z,976.73
2022-11-05T02:44:49.078Z,976.66
2022-11-05T02:45:49.080Z,976.68
2022-11-05T02:46:49.077Z,976.74
2022-11-05T02:47:49.069Z,976.74
2022-11-05T02:48:49.056Z,976.81
2022-11-05T02:49:49.022Z,976.79
2022-11-05T02:50:49.015Z,976.75
2022-11-05T02:51:48.996Z,976.74
2022-11-05T02:52:48.958Z,976.76
2022-11-05T02:53:48.991Z,976.78
2022-11-05T02:54:48.959Z,976.75
2022-11-05T02:55:48.929Z,976.78
2022-11-05T02:56:48.933Z,976.77
2022-11-05T02:57:48.911Z,976.75
2022-11-05T02:58:48.898Z,976.72
2022-11-05T02:59:48.871Z,976.70
2022-11-05T03:00:48.871Z,976.76
2022-11-05T03:01:48.928Z,976.72
2022-11-05T03:02:48.932Z,976.72
2022-11-05T03:03:48.850Z,976.74
2022-11-05T03:04:48.812Z,976.71
2022-11-05T03:05:48.810Z,976.75
2022-11-05T03:06:48.790Z,976.74
2022-11-05T03:07:48.786Z,976.74
2022-11-05T03:08:48.801Z,976.69
2022-11-05T03:09:48.763Z,976.76
2022-11-05T03:10:48.732Z,976.71
2022-11-05T03:11:48.743Z,976.65
2022-11-05T03:12:48.731Z,976.68
2022-11-05T03:13:48.691Z,976.70
2022-11-05T03:14:48.699Z,976.70
2022-11-05T03:15:48.678Z,976.73
2022-11-05T03:16:48.656Z,976.73
2022-11-05T03:17:48.642Z,976.71
2022-11-05T03:18:48.646Z,976.77
2022-11-05T03:19:48.636Z,976.82
2022-11-05T03:20:48.612Z,976.75
2022-11-05T03:21:48.619Z,976.78
2022-11-05T03:22:48.575Z,976.77
2022-11-05T03:23:48.613Z,976.70
2022-11-05T03:24:48.565Z,976.80
2022-11-05T03:25:48.574Z,976.76
2022-11-05T03:26:48.561Z,976.78
2022-11-05T03:27:48.543Z,976.78
2022-11-05T03:28:48.555Z,976.83
2022-11-05T03:29:48.496Z,976.85
2022-11-05T03:30:48.498Z,976.88
2022-11-05T03:31:48.495Z,976.87
2022-11-05T03:32:48.473Z,976.80
2022-11-05T03:33:48.483Z,976.85
2022-11-05T03:34:48.456Z,976.88
2022-11-05T03:35:48.444Z,976.89
2022-11-05T03:36:48.441Z,976.91
2022-11-05T03:37:48.414Z,976.87
2022-11-05T03:38:48.424Z,976.89
2022-11-05T03:39:48.384Z,976.93
2022-11-05T03:40:48.372Z,976.89
2022-11-05T03:41:48.384Z,976.90
2022-11-05T03:42:48.348Z,976.91
2022-11-05T03:43:48.355Z,976.86
2022-11-05T03:44:48.364Z,976.91
2022-11-05T03:45:48.308Z,976.83
2022-11-05T03:46:48.312Z,976.86
2022-11-05T03:47:48.292Z,976.90
2022-11-05T03:48:48.315Z,976.94
2022-11-05T04:02:45.697Z,976.92
2022-11-05T04:03:45.586Z,976.94
2022-11-05T04:04:45.517Z,976.91
2022-11-05T04:05:45.473Z,976.91
2022-11-05T04:06:45.478Z,976.94
2022-11-05T04:07:45.453Z,976.96
2022-11-05T04:08:45.444Z,976.95
2022-11-05T04:09:45.442Z,976.97
2022-11-05T04:10:45.418Z,976.95
2022-11-05T04:11:45.443Z,976.98
2022-11-05T04:12:45.447Z,977.01
2022-11-05T04:13:45.447Z,977.00
2022-11-05T04:14:45.388Z,977.02
2022-11-05T04:15:45.365Z,976.99
2022-11-05T04:16:45.325Z,977.06
2022-11-05T04:17:45.329Z,977.04
2022-11-05T04:18:45.339Z,977.09
2022-11-05T04:19:45.339Z,977.06
2022-11-05T04:20:45.303Z,977.09
2022-11-05T04:21:45.284Z,977.06
2022-11-05T04:22:46.280Z,977.06
2022-11-05T04:23:45.246Z,977.12
2022-11-05T04:24:45.254Z,977.13
2022-11-05T04:25:45.218Z,977.15
2022-11-05T04:26:45.216Z,977.16
2022-11-05T04:27:45.187Z,977.12
2022-11-05T04:28:46.201Z,977.20
2022-11-05T04:29:45.171Z,977.21
2022-11-05T04:30:45.171Z,977.22
2022-11-05T04:31:45.131Z,977.23
2022-11-05T04:32:45.134Z,977.29
2022-11-05T04:33:45.100Z,977.26
2022-11-05T04:34:45.127Z,977.25
2022-11-05T04:35:45.083Z,977.28
2022-11-05T04:36:45.090Z,977.31
2022-11-05T04:37:45.073Z,977.30
2022-11-05T04:38:45.061Z,977.30
2022-11-05T04:39:45.050Z,977.36
2022-11-05T04:40:45.041Z,977.36
2022-11-05T04:41:45.021Z,977.36
2022-11-05T04:42:45.012Z,977.35
2022-11-05T04:43:45.007Z,977.35
2022-11-05T04:44:44.991Z,977.40
2022-11-05T04:45:44.978Z,977.37
2022-11-05T04:46:44.985Z,977.36
2022-11-05T04:47:44.932Z,977.36
2022-11-05T04:48:44.955Z,977.35
2022-11-05T04:49:45.930Z,977.37
2022-11-05T04:50:45.913Z,977.36
2022-11-05T04:51:44.872Z,977.44
2022-11-05T04:52:44.893Z,977.43
2022-11-05T04:53:44.851Z,977.45
2022-11-05T04:54:44.851Z,977.47
2022-11-05T04:55:44.847Z,977.46
2022-11-05T04:56:44.843Z,977.50
2022-11-05T04:57:44.800Z,977.56
2022-11-05T04:58:45.782Z,977.55
2022-11-05T04:59:44.783Z,977.58
2022-11-05T05:00:44.854Z,977.61
2022-11-05T05:01:44.797Z,977.58
2022-11-05T05:02:44.756Z,977.63
2022-11-05T05:03:44.714Z,977.63
2022-11-05T05:04:44.714Z,977.67
2022-11-05T05:05:44.729Z,977.76
2022-11-05T05:06:44.683Z,977.74
2022-11-05T05:07:44.664Z,977.73
2022-11-05T05:08:44.656Z,977.82
2022-11-05T05:09:44.634Z,977.83
2022-11-05T05:10:44.671Z,977.79
2022-11-05T05:11:44.638Z,977.79
2022-11-05T05:12:44.659Z,977.91
2022-11-05T05:13:44.596Z,977.84
2022-11-05T05:14:44.585Z,977.85
2022-11-05T05:15:44.582Z,977.93
2022-11-05T05:16:44.577Z,977.92
2022-11-05T05:17:44.545Z,977.91
2022-11-05T05:18:46.366Z,977.95
2022-11-05T05:19:44.513Z,977.94
2022-11-05T05:20:44.518Z,977.94
2022-11-05T05:21:44.486Z,977.92
2022-11-05T05:22:44.500Z,977.97
2022-11-05T05:23:44.458Z,977.96
2022-11-05T05:24:51.487Z,977.94
2022-11-05T05:25:45.459Z,977.99
2022-11-05T05:26:44.448Z,978.04
2022-11-05T05:27:44.406Z,978.02
2022-11-05T05:28:44.407Z,978.00
2022-11-05T05:29:44.396Z,978.06
2022-11-05T05:30:44.426Z,978.06
2022-11-05T05:31:44.388Z,978.07
2022-11-05T05:32:44.350Z,978.11
2022-11-05T05:33:44.340Z,978.01
2022-11-05T05:34:44.330Z,978.09
2022-11-05T05:35:44.321Z,978.15
2022-11-05T05:36:44.308Z,978.12
2022-11-05T05:37:44.313Z,978.10
2022-11-05T05:38:44.289Z,978.17
2022-11-05T05:39:44.290Z,978.19
2022-11-05T05:40:44.348Z,978.17
2022-11-05T05:41:44.311Z,978.21
2022-11-05T05:42:44.320Z,978.10
2022-11-05T05:43:44.211Z,978.23
2022-11-05T05:44:44.232Z,978.21
2022-11-05T05:45:44.290Z,978.22
2022-11-05T05:46:44.239Z,978.20
2022-11-05T05:47:44.252Z,978.33
2022-11-05T05:48:44.148Z,978.29
2022-11-05T05:49:44.159Z,978.29
2022-11-05T05:50:44.133Z,978.25
2022-11-05T05:51:44.111Z,978.31
2022-11-05T05:52:44.090Z,978.30
2022-11-05T05:53:44.182Z,978.32
2022-11-05T05:54:44.060Z,978.35
2022-11-05T05:55:44.138Z,978.36
2022-11-05T05:56:45.059Z,978.37
2022-11-05T05:57:44.047Z,978.32
2022-11-05T05:58:44.010Z,978.36
2022-11-05T05:59:44.015Z,978.37
2022-11-05T06:00:44.026Z,978.39
2022-11-05T06:01:44.160Z,978.32
2022-11-05T06:02:44.092Z,978.35
2022-11-05T06:03:43.942Z,978.39
2022-11-05T06:04:43.950Z,978.42
2022-11-05T06:05:44.015Z,978.39
2022-11-05T06:06:43.921Z,978.39
2022-11-05T06:07:43.978Z,978.42
2022-11-05T06:08:44.881Z,978.44
2022-11-05T06:09:44.905Z,978.43
2022-11-05T06:10:44.207Z,978.51
2022-11-05T06:11:43.904Z,978.54
2022-11-05T06:12:43.905Z,978.52
2022-11-05T06:13:43.931Z,978.55
2022-11-05T06:14:43.821Z,978.54
2022-11-05T06:15:43.882Z,978.58
2022-11-05T06:16:43.846Z,978.56
2022-11-05T06:17:43.848Z,978.58
2022-11-05T06:18:43.848Z,978.63
2022-11-05T06:19:43.753Z,978.63
2022-11-05T06:20:43.775Z,978.65
2022-11-05T06:21:43.767Z,978.66
2022-11-05T06:22:43.765Z,978.62
2022-11-05T06:23:43.775Z,978.69
2022-11-05T06:24:43.666Z,978.70
2022-11-05T06:25:43.734Z,978.78
2022-11-05T06:26:43.697Z,978.79
2022-11-05T06:27:43.698Z,978.73
2022-11-05T06:28:43.707Z,978.73
2022-11-05T06:29:43.721Z,978.75
2022-11-05T06:30:43.686Z,978.71
2022-11-05T06:31:43.627Z,978.77
2022-11-05T06:32:43.647Z,978.72
2022-11-05T06:33:43.567Z,978.78
2022-11-05T06:34:43.568Z,978.83
2022-11-05T06:35:44.561Z,978.80
2022-11-05T06:36:43.516Z,978.84
2022-11-05T06:37:43.517Z,978.79
2022-11-05T06:38:43.497Z,978.88
2022-11-05T06:39:43.498Z,978.77
2022-11-05T06:40:43.535Z,978.77
2022-11-05T06:42:12.021Z,978.80
2022-11-05T06:42:44.464Z,978.77
2022-11-05T06:43:45.496Z,978.84
2022-11-05T06:44:43.516Z,978.74
2022-11-05T06:45:43.427Z,978.81
2022-11-05T06:46:48.395Z,978.78
2022-11-05T06:47:44.477Z,978.81
2022-11-05T06:48:45.411Z,978.82
2022-11-05T06:49:44.377Z,978.86
2022-11-05T06:50:43.356Z,978.90
2022-11-05T06:51:43.327Z,978.90
2022-11-05T06:52:43.317Z,978.87
2022-11-05T06:53:43.310Z,978.88
2022-11-05T06:54:43.287Z,978.90
2022-11-05T06:55:43.333Z,978.98
2022-11-05T06:56:43.288Z,978.97
2022-11-05T06:57:43.300Z,978.97
2022-11-05T06:58:43.278Z,979.01
2022-11-05T06:59:43.263Z,979.04
2022-11-05T07:00:43.276Z,979.06
2022-11-05T07:01:43.302Z,979.00
2022-11-05T07:02:43.189Z,979.05
2022-11-05T07:03:43.190Z,979.09
2022-11-05T07:04:43.161Z,979.11
2022-11-05T07:05:43.190Z,979.08
2022-11-05T07:06:43.152Z,979.13
2022-11-05T07:07:43.160Z,979.11
2022-11-05T07:08:43.178Z,979.16
2022-11-05T07:09:43.191Z,979.19
2022-11-05T07:10:43.107Z,979.19
2022-11-05T07:11:43.080Z,979.13
2022-11-05T07:12:43.072Z,979.21
2022-11-05T07:13:43.059Z,979.24
2022-11-05T07:14:43.031Z,979.18
2022-11-05T07:15:43.056Z,979.16
2022-11-05T07:16:43.020Z,979.22
2022-11-05T07:17:43.034Z,979.19
2022-11-05T07:18:43.033Z,979.24
2022-11-05T07:19:43.043Z,979.26
2022-11-05T07:20:43.085Z,979.31
2022-11-05T07:21:46.262Z,979.29
2022-11-05T07:22:42.921Z,979.27
2022-11-05T07:23:42.994Z,979.30
2022-11-05T07:24:42.986Z,979.32
2022-11-05T07:25:43.247Z,979.35
2022-11-05T07:26:42.993Z,979.45
2022-11-05T07:27:42.901Z,979.42
2022-11-05T07:28:42.874Z,979.43
2022-11-05T07:29:44.892Z,979.45
2022-11-05T07:30:42.884Z,979.44
2022-11-05T07:31:42.832Z,979.49
2022-11-05T07:32:42.786Z,979.48
2022-11-05T07:33:42.819Z,979.39
2022-11-05T07:34:42.827Z,979.43
2022-11-05T07:35:42.885Z,979.44
2022-11-05T07:36:43.784Z,979.40
2022-11-05T07:37:42.774Z,979.45
2022-11-05T07:38:42.763Z,979.45
2022-11-05T07:39:42.755Z,979.47
2022-11-05T07:40:42.817Z,979.54
2022-11-05T07:41:43.724Z,979.48
2022-11-05T07:42:42.686Z,979.56
2022-11-05T07:43:42.695Z,979.57
2022-11-05T07:44:42.697Z,979.52
2022-11-05T07:45:42.742Z,979.53
2022-11-05T07:46:42.662Z,979.56
2022-11-05T07:47:42.639Z,979.59
2022-11-05T07:48:42.641Z,979.57
2022-11-05T07:49:42.630Z,979.57
2022-11-05T07:50:42.590Z,979.61
2022-11-05T07:51:42.665Z,979.70
2022-11-05T07:52:42.670Z,979.74
2022-11-05T07:53:45.437Z,979.72
2022-11-05T07:54:42.560Z,979.78
2022-11-05T07:55:42.593Z,979.77
2022-11-05T07:56:42.572Z,979.81
2022-11-05T07:57:42.582Z,979.82
2022-11-05T07:58:42.482Z,979.84
2022-11-05T07:59:42.497Z,979.82
2022-11-05T08:00:42.704Z,979.83
2022-11-05T08:01:42.620Z,979.83
2022-11-05T08:02:42.751Z,979.83
2022-11-05T08:03:42.515Z,979.81
2022-11-05T08:04:42.423Z,979.88
2022-11-05T08:05:42.423Z,979.78
2022-11-05T08:06:42.464Z,979.72
2022-11-05T08:07:42.453Z,979.71
2022-11-05T08:08:42.350Z,979.78
2022-11-05T08:09:44.453Z,979.70
2022-11-05T08:10:42.366Z,979.76
2022-11-05T08:11:42.413Z,979.74
2022-11-05T08:12:42.287Z,979.77
2022-11-05T08:13:42.293Z,979.77
2022-11-05T08:14:42.300Z,979.78
2022-11-05T08:15:44.376Z,979.82
2022-11-05T08:16:42.336Z,979.77
2022-11-05T08:17:42.321Z,979.85
2022-11-05T08:18:42.232Z,979.76
2022-11-05T08:19:42.210Z,979.78
2022-11-05T08:20:42.212Z,979.70
2022-11-05T08:21:42.190Z,979.82
2022-11-05T08:22:42.151Z,979.83
2022-11-05T08:23:42.160Z,979.88
2022-11-05T08:24:42.138Z,979.91
2022-11-05T08:25:42.148Z,979.89
2022-11-05T08:26:42.118Z,979.79
2022-11-05T08:27:42.090Z,979.87
2022-11-05T08:28:42.184Z,979.83
2022-11-05T08:29:42.069Z,979.81
2022-11-05T08:30:42.101Z,979.83
2022-11-05T08:31:42.071Z,979.84
2022-11-05T08:32:42.026Z,979.82
2022-11-05T08:33:42.030Z,979.82
2022-11-05T08:34:42.026Z,979.86
2022-11-05T08:35:42.326Z,979.85
2022-11-05T08:36:42.047Z,979.90
2022-11-05T08:37:41.970Z,979.89
2022-11-05T08:38:41.939Z,979.90
2022-11-05T08:39:41.955Z,979.89
2022-11-05T08:40:41.931Z,979.89
2022-11-05T08:41:41.922Z,979.90
2022-11-05T08:42:41.970Z,979.96
2022-11-05T08:43:41.994Z,979.91
2022-11-05T08:44:41.924Z,979.96
2022-11-05T08:45:41.880Z,979.95
2022-11-05T08:46:42.007Z,979.93
2022-11-05T08:47:41.903Z,980.02
2022-11-05T08:48:42.832Z,980.01
2022-11-05T08:49:41.935Z,979.98
2022-11-05T08:50:41.861Z,980.05
2022-11-05T08:51:41.792Z,980.07
2022-11-05T08:52:41.833Z,980.02
2022-11-05T08:53:41.853Z,980.03
2022-11-05T08:54:41.857Z,980.07
2022-11-05T08:55:41.747Z,980.08
2022-11-05T08:56:41.794Z,980.08
2022-11-05T08:57:41.773Z,980.04
2022-11-05T08:58:41.802Z,980.08
2022-11-05T08:59:41.802Z,980.08
2022-11-05T09:00:41.798Z,980.06
2022-11-05T09:01:41.813Z,980.10
2022-11-05T09:02:41.711Z,980.04
2022-11-05T09:03:41.714Z,980.13
2022-11-05T09:04:41.725Z,980.14
2022-11-05T09:05:41.626Z,980.10
2022-11-05T09:06:41.619Z,980.19
2022-11-05T09:07:41.653Z,980.17
2022-11-05T09:08:42.581Z,980.18
2022-11-05T09:09:41.556Z,980.22
2022-11-05T09:10:41.554Z,980.26
2022-11-05T09:12:05.697Z,980.21
2022-11-05T09:12:42.507Z,980.23
2022-11-05T09:13:41.587Z,980.23
2022-11-05T09:14:42.539Z,980.20
2022-11-05T09:15:41.485Z,980.22
2022-11-05T09:16:41.475Z,980.23
2022-11-05T09:17:41.711Z,980.21
2022-11-05T09:18:41.516Z,980.21
2022-11-05T09:19:41.451Z,980.28
2022-11-05T09:20:41.451Z,980.28
2022-11-05T09:21:41.434Z,980.34
2022-11-05T09:22:43.455Z,980.28
2022-11-05T09:23:41.389Z,980.31
2022-11-05T09:24:41.393Z,980.24
2022-11-05T09:25:41.367Z,980.25
2022-11-05T09:26:41.338Z,980.26
2022-11-05T09:27:41.385Z,980.28
2022-11-05T09:28:41.380Z,980.30
2022-11-05T09:29:41.403Z,980.27
2022-11-05T09:30:41.308Z,980.24
2022-11-05T09:32:04.366Z,980.29
2022-11-05T09:32:41.279Z,980.26
2022-11-05T09:33:41.322Z,980.33
2022-11-05T09:34:41.239Z,980.31
2022-11-05T09:35:41.225Z,980.32
2022-11-05T09:36:41.259Z,980.30
2022-11-05T09:37:41.238Z,980.35
2022-11-05T09:38:41.252Z,980.38
2022-11-05T09:39:42.174Z,980.41
2022-11-05T09:40:41.162Z,980.32
2022-11-05T09:41:41.147Z,980.39
2022-11-05T09:42:41.172Z,980.35
2022-11-05T09:43:41.192Z,980.42
2022-11-05T09:44:41.192Z,980.44
2022-11-05T09:45:43.235Z,980.41
2022-11-05T09:46:41.133Z,980.48
2022-11-05T10:03:32.517Z,980.56
2022-11-05T10:04:32.509Z,980.51
2022-11-05T10:05:32.587Z,980.46
2022-11-05T10:06:32.580Z,980.45
2022-11-05T10:07:32.544Z,980.40
2022-11-05T10:08:53.551Z,980.48
2022-11-05T10:09:32.428Z,980.51
2022-11-05T10:10:36.442Z,980.44
2022-11-05T10:11:33.551Z,980.37
2022-11-05T10:12:32.453Z,980.40
2022-11-05T10:13:32.462Z,980.41
2022-11-05T10:14:39.884Z,980.44
2022-11-05T10:15:32.397Z,980.48
2022-11-05T10:16:32.412Z,980.48
2022-11-05T10:17:54.403Z,980.47
2022-11-05T10:18:34.344Z,980.46
2022-11-05T10:20:42.534Z,980.54
2022-11-05T10:22:14.559Z,980.55
2022-11-05T10:22:48.318Z,980.56
2022-11-05T10:26:02.239Z,980.57
2022-11-05T10:27:09.692Z,980.57
2022-11-05T10:28:09.680Z,980.55
2022-11-05T10:29:09.746Z,980.61
2022-11-05T10:30:09.754Z,980.61
2022-11-05T10:31:02.204Z,980.60
2022-11-05T10:32:02.134Z,980.65
2022-11-05T10:33:02.130Z,980.61
2022-11-05T10:34:02.093Z,980.60
2022-11-05T10:35:02.141Z,980.66
2022-11-05T10:36:02.103Z,980.64
2022-11-05T10:37:02.059Z,980.62
2022-11-05T10:38:02.132Z,980.62
2022-11-05T10:39:02.143Z,980.68
2022-11-05T10:40:03.079Z,980.64
2022-11-05T10:41:02.015Z,980.62
2022-11-05T10:42:03.154Z,980.67
2022-11-05T10:43:01.980Z,980.71
2022-11-05T10:44:02.074Z,980.73
2022-11-05T10:45:22.961Z,980.66
2022-11-05T10:46:25.037Z,980.76
2022-11-05T10:47:01.985Z,980.71
2022-11-05T10:48:01.988Z,980.73
2022-11-05T10:49:03.984Z,980.74
2022-11-05T10:50:02.970Z,980.70
2022-11-05T10:51:01.888Z,980.62
2022-11-05T10:52:03.896Z,980.66
2022-11-05T10:53:01.888Z,980.66
2022-11-05T10:54:02.375Z,980.68
2022-11-05T10:55:01.832Z,980.66
2022-11-05T10:56:01.971Z,980.65
2022-11-05T10:57:01.798Z,980.64
2022-11-05T10:58:01.778Z,980.68
2022-11-05T10:59:01.780Z,980.67
2022-11-05T11:00:01.773Z,980.67
2022-11-05T11:01:01.872Z,980.65
2022-11-05T11:02:01.849Z,980.66
2022-11-05T11:03:01.791Z,980.72
2022-11-05T11:04:01.723Z,980.73
2022-11-05T11:05:01.701Z,980.73
2022-11-05T11:06:01.689Z,980.75
2022-11-05T11:07:01.662Z,980.78
2022-11-05T11:08:01.653Z,980.73
2022-11-05T11:09:01.670Z,980.71
2022-11-05T11:10:01.624Z,980.77
2022-11-05T11:11:01.641Z,980.79
2022-11-05T11:12:01.664Z,980.70
2022-11-05T11:13:01.592Z,980.73
2022-11-05T11:14:01.577Z,980.78
2022-11-05T11:15:01.569Z,980.71
2022-11-05T11:16:01.565Z,980.75
2022-11-05T11:17:01.536Z,980.75
2022-11-05T11:18:02.533Z,980.76
2022-11-05T11:19:01.530Z,980.81
2022-11-05T11:20:01.503Z,980.81
2022-11-05T11:21:01.504Z,980.82
2022-11-05T11:22:01.482Z,980.78
2022-11-05T11:23:02.467Z,980.77
2022-11-05T11:24:01.448Z,980.82
2022-11-05T11:25:01.449Z,980.82
2022-11-05T11:26:01.440Z,980.80
2022-11-05T11:27:01.397Z,980.79
2022-11-05T11:28:02.408Z,980.76
2022-11-05T11:29:01.385Z,980.71
2022-11-05T11:30:01.366Z,980.83
2022-11-05T11:31:01.378Z,980.79
2022-11-05T11:32:01.348Z,980.81
2022-11-05T11:33:01.344Z,980.79
2022-11-05T11:34:01.397Z,980.81
2022-11-05T11:35:02.404Z,980.82
2022-11-05T11:36:01.305Z,980.81
2022-11-05T11:37:01.292Z,980.87
2022-11-05T11:38:01.259Z,980.81
2022-11-05T11:39:01.243Z,980.90
2022-11-05T11:40:01.326Z,980.81
2022-11-05T11:41:01.247Z,980.86
2022-11-05T11:42:01.237Z,980.87
2022-11-05T11:43:01.269Z,980.87
2022-11-05T11:44:01.191Z,980.82
2022-11-05T11:45:01.180Z,980.81
2022-11-05T11:46:06.125Z,980.77
2022-11-05T11:47:02.160Z,980.76
2022-11-05T11:48:01.141Z,980.72
2022-11-05T11:49:01.123Z,980.69
2022-11-05T11:50:01.115Z,980.70
2022-11-05T11:51:01.103Z,980.64
2022-11-05T11:52:01.091Z,980.67
2022-11-05T11:53:01.081Z,980.71
2022-11-05T11:54:01.066Z,980.70
2022-11-05T11:55:01.043Z,980.75
2022-11-05T11:56:01.056Z,980.68
2022-11-05T11:57:01.054Z,980.73
2022-11-05T11:58:01.003Z,980.70
2022-11-05T11:59:01.006Z,980.71
2022-11-05T12:00:09.768Z,980.70
2022-11-05T12:01:01.964Z,980.77
2022-11-05T12:02:01.129Z,980.78
2022-11-05T12:03:02.203Z,980.72
2022-11-05T12:04:00.985Z,980.76
2022-11-05T12:05:00.975Z,980.73
2022-11-05T12:06:01.097Z,980.80
2022-11-05T12:07:00.917Z,980.81
2022-11-05T12:08:00.920Z,980.75
2022-11-05T12:09:06.419Z,980.76
2022-11-05T12:10:01.935Z,980.75
2022-11-05T12:11:00.866Z,980.71
2022-11-05T12:12:00.820Z,980.70
2022-11-05T12:13:00.815Z,980.68
2022-11-05T12:14:00.867Z,980.76
2022-11-05T12:15:00.847Z,980.74
2022-11-05T12:16:00.801Z,980.71
2022-11-05T12:17:21.859Z,980.72
2022-11-05T12:18:00.769Z,980.71
2022-11-05T12:19:00.770Z,980.71
2022-11-05T12:20:00.779Z,980.70
2022-11-05T12:21:00.709Z,980.68
2022-11-05T12:22:00.716Z,980.72
2022-11-05T12:23:01.761Z,980.66
2022-11-05T12:24:00.708Z,980.66
2022-11-05T12:25:00.709Z,980.65
2022-11-05T12:26:00.651Z,980.70
2022-11-05T12:27:00.631Z,980.64
2022-11-05T12:28:00.671Z,980.73
2022-11-05T12:30:01.600Z,980.74
2022-11-05T12:31:00.583Z,980.79
2022-11-05T12:32:00.550Z,980.80
2022-11-05T12:33:00.612Z,980.80
2022-11-05T12:34:00.605Z,980.82
2022-11-05T12:35:00.504Z,980.81
2022-11-05T12:36:00.554Z,980.82
2022-11-05T12:37:00.487Z,980.85
2022-11-05T12:38:00.502Z,980.86
2022-11-05T12:39:00.475Z,980.92
2022-11-05T12:40:00.447Z,980.88
2022-11-05T12:41:00.463Z,980.86
2022-11-05T12:42:00.431Z,980.83
2022-11-05T12:43:00.402Z,980.89
2022-11-05T12:44:00.385Z,980.88
2022-11-05T12:45:00.372Z,980.88
2022-11-05T12:46:00.388Z,980.86
2022-11-05T12:47:00.445Z,980.96
2022-11-05T12:48:00.371Z,980.86
2022-11-05T12:49:00.370Z,980.96
2022-11-05T12:50:00.383Z,980.90
2022-11-05T12:51:00.315Z,980.95
2022-11-05T12:52:00.290Z,980.98
2022-11-05T12:53:00.270Z,980.95
2022-11-05T12:54:00.313Z,980.98
2022-11-05T12:55:00.237Z,980.99
2022-11-05T12:56:00.250Z,980.99
2022-11-05T12:57:00.217Z,980.96
2022-11-05T12:58:00.244Z,981.01
2022-11-05T12:59:00.291Z,980.95
2022-11-05T13:00:00.196Z,980.97
2022-11-05T13:01:00.242Z,981.00
2022-11-05T13:02:00.397Z,981.02
2022-11-05T13:03:00.174Z,981.00
2022-11-05T13:04:00.162Z,981.05
2022-11-05T13:05:00.174Z,981.02
2022-11-05T13:06:05.461Z,981.00